METAR Data
IDs: Format: Raw Decoded Include TAF

Data at: 1620 UTC 19 Sep 2018

KTEX 191615Z AUTO 27007KT 10SM OVC090 17/01 A3030 RMK AO2
KTEX 191555Z AUTO 26006KT 10SM SCT075 BKN100 OVC110 18/01 A3029 RMK AO2
KTEX 191535Z AUTO 00000KT 10SM SCT075 BKN100 16/02 A3029 RMK AO2
KTEX 191515Z AUTO 00000KT 10SM BKN100 15/01 A3028 RMK AO2
KTEX 191455Z AUTO 18003KT 10SM SCT100 14/01 A3028 RMK AO2
KTEX 191435Z AUTO 12003KT 10SM SCT100 13/01 A3029 RMK AO2
KTEX 191415Z AUTO 10004KT 10SM BKN100 12/00 A3029 RMK AO2
KTEX 191355Z AUTO 14005KT 10SM OVC100 12/00 A3029 RMK AO2
KTEX 191335Z AUTO 14006KT 10SM BKN100 12/00 A3029 RMK AO2
KTEX 191315Z AUTO 16006KT 10SM BKN100 11/00 A3030 RMK AO2
KTEX 191255Z AUTO 14007KT 10SM BKN100 11/00 A3029 RMK AO2
KTEX 191235Z AUTO 15006KT 10SM BKN100 11/00 A3029 RMK AO2
KTEX 191215Z AUTO 13004KT 10SM CLR 12/00 A3029 RMK AO2
KTEX 191155Z AUTO 15005KT 10SM CLR 11/00 A3029 RMK AO2
KTEX 191135Z AUTO 13005KT 10SM CLR 11/00 A3029 RMK AO2
KTEX 191115Z AUTO 13006KT 10SM CLR 11/00 A3029 RMK AO2
KTEX 191055Z AUTO 13007KT 10SM CLR 11/00 A3029 RMK AO2
KTEX 191035Z AUTO 12005KT 10SM CLR 11/00 A3029 RMK AO2
KTEX 191015Z AUTO 14007KT 10SM CLR 11/M01 A3029 RMK AO2
KTEX 190955Z AUTO 16005KT 10SM CLR 12/M01 A3029 RMK AO2
KTEX 190935Z AUTO 13005KT 10SM CLR 11/M02 A3029 RMK AO2
KTEX 190915Z AUTO 09004KT 10SM CLR 12/M03 A3030 RMK AO2
KTEX 190855Z AUTO 14007KT 10SM CLR 12/M02 A3030 RMK AO2
KTEX 190835Z AUTO 14005KT 10SM CLR 12/M03 A3030 RMK AO2
KTEX 190815Z AUTO 13005KT 10SM CLR 12/M02 A3031 RMK AO2
KTEX 190755Z AUTO 14007KT 10SM CLR 12/M02 A3031 RMK AO2
KTEX 190735Z AUTO 12006KT 10SM CLR 12/M01 A3031 RMK AO2
KTEX 190715Z AUTO 13007KT 10SM CLR 12/M01 A3031 RMK AO2
KTEX 190655Z AUTO 14007KT 10SM CLR 12/M01 A3031 RMK AO2
KTEX 190635Z AUTO 14007KT 10SM CLR 12/M01 A3032 RMK AO2
KTEX 190615Z AUTO 13007KT 10SM CLR 13/M01 A3032 RMK AO2
KTEX 190555Z AUTO 14005KT 10SM CLR 13/M01 A3033 RMK AO2
KTEX 190535Z AUTO 14007KT 10SM CLR 13/M01 A3033 RMK AO2
KTEX 190515Z AUTO 15005KT 10SM CLR 14/M01 A3033 RMK AO2
KTEX 190455Z AUTO 08003KT 10SM CLR 14/M01 A3033 RMK AO2
KTEX 190435Z AUTO 13004KT 10SM CLR 14/M01 A3033 RMK AO2
KTEX 190415Z AUTO 14004KT 10SM CLR 15/M01 A3034 RMK AO2
KTEX 190355Z AUTO 00000KT 10SM CLR 16/M01 A3034 RMK AO2
KTEX 190335Z AUTO 13004KT 10SM CLR 16/M01 A3034 RMK AO2
KTEX 190315Z AUTO 00000KT 10SM CLR 16/M01 A3034 RMK AO2
KTEX 190255Z AUTO 00000KT 10SM CLR 17/M02 A3034 RMK AO2
KTEX 190235Z AUTO 00000KT 10SM CLR 17/M02 A3033 RMK AO2
KTEX 190215Z AUTO 00000KT 10SM CLR 18/M02 A3033 RMK AO2
KTEX 190155Z AUTO 00000KT 10SM CLR 18/M02 A3032 RMK AO2
KTEX 190135Z AUTO 26004KT 10SM CLR 20/M02 A3032 RMK AO2
KTEX 190115Z AUTO 25004KT 10SM CLR 20/M03 A3032 RMK AO2
KTEX 190055Z AUTO 24006KT 210V280 10SM CLR 21/M03 A3032 RMK AO2
KTEX 190035Z AUTO 22005KT 10SM CLR 22/M05 A3032 RMK AO2
KTEX 190015Z AUTO 25007G16KT 10SM CLR 22/M04 A3032 RMK AO2
KTEX 182355Z AUTO 27012G20KT 10SM CLR 22/M03 A3031 RMK AO2
KTEX 182335Z AUTO 24012G19KT 10SM CLR 22/M03 A3031 RMK AO2
KTEX 182315Z AUTO 27013G18KT 230V290 10SM CLR 23/M03 A3032 RMK AO2
KTEX 182250Z AUTO 26010G19KT 10SM CLR 23/M02 A3032 RMK AO2
KTEX 182230Z AUTO 26012G19KT 10SM CLR 23/M03 A3032 RMK AO2
KTEX 182215Z AUTO 26012G20KT 10SM CLR 23/M02 A3032 RMK AO2
KTEX 182155Z AUTO 24011G20KT 200V270 10SM CLR 23/M01 A3032 RMK AO2
KTEX 182135Z AUTO 25011G20KT 10SM SCT090 23/M01 A3033 RMK AO2
KTEX 182115Z AUTO 25014G21KT 220V280 10SM CLR 23/M01 A3034 RMK AO2
KTEX 182055Z AUTO 22012G19KT 200V260 10SM CLR 23/M01 A3034 RMK AO2
KTEX 182035Z AUTO 27008G18KT 10SM SCT095 23/M01 A3034 RMK AO2
KTEX 182015Z AUTO 26010G23KT 10SM SCT095 23/M01 A3036 RMK AO2
KTEX 181955Z AUTO 20011G22KT 10SM SCT095 23/M01 A3036 RMK AO2
KTEX 181935Z AUTO 21013G23KT 150V230 10SM SCT095 23/M01 A3036 RMK AO2
KTEX 181915Z AUTO 25011G18KT 220V300 10SM BKN095 23/00 A3037 RMK AO2
KTEX 181855Z AUTO 22011G19KT 200V260 10SM SCT080 SCT095 23/00 A3038 RMK AO2
KTEX 181835Z AUTO 22008G16KT 170V270 10SM SCT085 22/00 A3038 RMK AO2
KTEX 181815Z AUTO 22013G22KT 10SM CLR 22/00 A3038 RMK AO2
KTEX 181755Z AUTO 24005G23KT 10SM CLR 22/01 A3040 RMK AO2
KTEX 181735Z AUTO 22013G21KT 10SM CLR 21/01 A3040 RMK AO2
KTEX 181715Z AUTO 24009G19KT 10SM SCT070 21/02 A3040 RMK AO2
KTEX 181655Z AUTO 23014G21KT 10SM SCT070 21/02 A3040 RMK AO2
KTEX 181635Z AUTO 20011G20KT 180V250 10SM CLR 21/02 A3040 RMK AO2
KTEX 181615Z AUTO 20009G17KT 10SM CLR 20/02 A3040 RMK AO2
KTEX 181550Z AUTO 00000KT 10SM CLR 19/03 A3040 RMK AO2
KTEX 181535Z AUTO 00000KT 10SM CLR 18/04 A3040 RMK AO2
KTEX 181515Z AUTO 00000KT 10SM CLR 16/04 A3040 RMK AO2
KTEX 181455Z AUTO 14004KT 10SM CLR 15/03 A3040 RMK AO2
KTEX 181435Z AUTO 15006KT 10SM CLR 13/03 A3041 RMK AO2
KTEX 181415Z AUTO 14005KT 10SM CLR 13/03 A3041 RMK AO2
KTEX 181350Z AUTO 13004KT 10SM CLR 12/03 A3041 RMK AO2
KTEX 181335Z AUTO 12003KT 10SM CLR 11/03 A3040 RMK AO2
KTEX 181315Z AUTO 13006KT 10SM CLR 11/03 A3040 RMK AO2
KTEX 181255Z AUTO 14004KT 10SM CLR 12/03 A3040 RMK AO2
KTEX 181235Z AUTO 12006KT 10SM CLR 11/03 A3040 RMK AO2
KTEX 181215Z AUTO 13007KT 10SM CLR 11/02 A3040 RMK AO2
KTEX 181155Z AUTO 13007KT 10SM CLR 11/02 A3040 RMK AO2
KTEX 181135Z AUTO 14006KT 10SM CLR 11/02 A3040 RMK AO2
KTEX 181115Z AUTO 13006KT 10SM CLR 11/02 A3039 RMK AO2
KTEX 181055Z AUTO 13006KT 10SM CLR 12/02 A3039 RMK AO2
KTEX 181035Z AUTO 13006KT 10SM CLR 12/02 A3039 RMK AO2
KTEX 181015Z AUTO 12004KT 10SM CLR 11/02 A3039 RMK AO2
KTEX 180955Z AUTO 12005KT 10SM CLR 11/02 A3039 RMK AO2
KTEX 180935Z AUTO 13007KT 10SM CLR 11/02 A3039 RMK AO2
KTEX 180915Z AUTO 15007KT 10SM CLR 12/02 A3039 RMK AO2
KTEX 180855Z AUTO 13005KT 10SM CLR 11/02 A3039 RMK AO2
KTEX 180835Z AUTO 14005KT 10SM CLR 12/02 A3039 RMK AO2
KTEX 180815Z AUTO 12006KT 10SM CLR 12/02 A3040 RMK AO2
KTEX 180755Z AUTO 00000KT 10SM CLR 11/02 A3040 RMK AO2
KTEX 180735Z AUTO 15004KT 10SM CLR 12/02 A3041 RMK AO2
KTEX 180715Z AUTO 15004KT 10SM CLR 12/02 A3040 RMK AO2
KTEX 180655Z AUTO 14004KT 10SM CLR 12/01 A3041 RMK AO2
KTEX 180635Z AUTO 12004KT 10SM CLR 12/01 A3041 RMK AO2
KTEX 180615Z AUTO 13005KT 10SM CLR 12/01 A3041 RMK AO2
KTEX 180555Z AUTO 14006KT 10SM CLR 13/01 A3041 RMK AO2
KTEX 180535Z AUTO 13006KT 10SM CLR 13/01 A3041 RMK AO2
KTEX 180515Z AUTO 13005KT 10SM CLR 14/01 A3041 RMK AO2
KTEX 180455Z AUTO 13004KT 10SM CLR 14/01 A3041 RMK AO2
KTEX 180435Z AUTO 00000KT 10SM CLR 15/01 A3041 RMK AO2